Time;durP1;ratioP1;P1;durP2;ratioP2;P2;SDS_P1;SDS_P2;PMS_P1;PMS_P2;Temp;Humidity;BMP_temperature;BMP_pressure;BME280_temperature;BME280_humidity;BME280_pressure;Samples;Min_cycle;Max_cycle;Signal;HPM_P1;HPM_P2
2023/03/03 00:01:10;;;;;;;;;;;2.30;99.90;;;;;;5080646;28;20274;-73
2023/03/03 00:03:36;;;;;;;;;;;2.30;99.90;;;;;;5003833;28;208636;-70
2023/03/03 00:06:03;;;;;;;;;;;2.30;99.90;;;;;;5063123;28;19920;-73
2023/03/03 00:08:31;;;;;;;;;;;2.30;99.90;;;;;;5054595;28;209137;-72
2023/03/03 00:10:57;;;;;;;;;;;2.30;99.90;;;;;;5035061;28;206640;-73
2023/03/03 00:13:24;;;;;;;;;;;2.30;99.90;;;;;;5066572;28;19924;-73
2023/03/03 00:15:50;;;;;;;;;;;2.30;99.90;;;;;;4975610;28;204054;-73
2023/03/03 00:18:25;;;;;;;;;;;2.40;99.90;;;;;;5062283;28;19935;-73
2023/03/03 00:20:56;;;;;;;;;;;2.40;99.90;;;;;;5027043;28;185438;-73
2023/03/03 00:23:31;;;;;;;;;;;2.40;99.90;;;;;;5046527;28;20337;-73
2023/03/03 00:25:58;;;;;;;;;;;2.40;99.90;;;;;;5007110;28;49627;-73
2023/03/03 00:28:24;;;;;;;;;;;2.40;99.90;;;;;;5050865;28;19920;-73
2023/03/03 00:30:51;;;;;;;;;;;2.40;99.90;;;;;;5006884;28;210481;-73
2023/03/03 00:33:31;;;;;;;;;;;2.40;99.90;;;;;;5072216;28;19924;-73
2023/03/03 00:36:10;;;;;;;;;;;2.50;99.90;;;;;;4992742;28;132588;-73
2023/03/03 00:38:36;;;;;;;;;;;2.40;99.90;;;;;;4996961;28;213979;-73
2023/03/03 00:41:03;;;;;;;;;;;2.50;99.90;;;;;;5052245;28;19924;-74
2023/03/03 00:43:34;;;;;;;;;;;2.50;99.90;;;;;;5031692;28;208311;-73
2023/03/03 00:46:00;;;;;;;;;;;2.60;99.90;;;;;;4998458;28;20296;-73
2023/03/03 00:48:27;;;;;;;;;;;2.60;99.90;;;;;;5064400;28;19925;-73
2023/03/03 00:50:54;;;;;;;;;;;2.60;99.90;;;;;;4972826;28;197090;-73
2023/03/03 00:53:22;;;;;;;;;;;2.60;99.90;;;;;;5050984;28;19936;-73
2023/03/03 00:55:49;;;;;;;;;;;2.60;99.90;;;;;;4983356;28;222647;-73
2023/03/03 00:58:15;;;;;;;;;;;2.60;99.90;;;;;;5052135;28;19939;-72
2023/03/03 01:00:41;;;;;;;;;;;2.60;99.90;;;;;;5001591;28;210395;-74
2023/03/03 01:03:08;;;;;;;;;;;2.60;99.90;;;;;;5054071;28;20281;-73
2023/03/03 01:05:34;;;;;;;;;;;2.70;99.90;;;;;;4946368;28;216625;-73
2023/03/03 01:08:01;;;;;;;;;;;2.70;99.90;;;;;;5048000;28;19924;-74
2023/03/03 01:10:29;;;;;;;;;;;2.70;99.90;;;;;;4996532;28;216328;-73
2023/03/03 01:12:56;;;;;;;;;;;2.70;99.90;;;;;;5047345;28;19924;-74
2023/03/03 01:15:23;;;;;;;;;;;2.70;99.90;;;;;;4989314;28;212100;-74
2023/03/03 01:17:49;;;;;;;;;;;2.70;99.90;;;;;;5054415;28;19928;-73
2023/03/03 01:20:15;;;;;;;;;;;2.70;99.90;;;;;;4968581;28;203374;-73
2023/03/03 01:22:41;;;;;;;;;;;2.70;99.90;;;;;;5060554;28;19940;-73
2023/03/03 01:25:08;;;;;;;;;;;2.70;99.90;;;;;;5003116;28;209958;-73
2023/03/03 01:27:34;;;;;;;;;;;2.70;99.90;;;;;;5067234;28;19931;-72
2023/03/03 01:30:00;;;;;;;;;;;2.70;99.90;;;;;;5005204;28;210492;-73
2023/03/03 01:32:26;;;;;;;;;;;2.70;99.90;;;;;;5045905;28;19929;-73
2023/03/03 01:34:52;;;;;;;;;;;2.80;99.90;;;;;;5001812;28;201822;-73
2023/03/03 01:37:19;;;;;;;;;;;2.80;99.90;;;;;;5067625;28;20507;-73
2023/03/03 01:39:52;;;;;;;;;;;2.70;99.90;;;;;;4985406;28;209557;-73
2023/03/03 01:42:18;;;;;;;;;;;2.80;99.90;;;;;;5045518;28;19928;-74
2023/03/03 01:44:44;;;;;;;;;;;2.80;99.90;;;;;;5011548;28;206473;-72
2023/03/03 01:47:11;;;;;;;;;;;2.70;99.90;;;;;;5067711;28;19924;-74
2023/03/03 01:50:09;;;;;;;;;;;2.70;99.90;;;;;;5004648;28;217388;-73
2023/03/03 01:52:37;;;;;;;;;;;2.80;99.90;;;;;;5016908;28;19929;-73
2023/03/03 01:55:08;;;;;;;;;;;2.80;99.90;;;;;;5022956;28;161784;-73
2023/03/03 01:57:37;;;;;;;;;;;2.70;99.90;;;;;;5084909;28;19931;-73
2023/03/03 02:00:04;;;;;;;;;;;2.80;99.90;;;;;;5033094;28;207995;-73
2023/03/03 02:02:30;;;;;;;;;;;2.80;99.90;;;;;;5079413;28;19927;-73
2023/03/03 02:04:56;;;;;;;;;;;2.70;99.90;;;;;;5003128;28;207932;-74
2023/03/03 02:07:24;;;;;;;;;;;2.70;99.90;;;;;;5081419;28;19924;-74
2023/03/03 02:09:53;;;;;;;;;;;2.80;99.90;;;;;;5018217;28;173828;-74
2023/03/03 02:12:21;;;;;;;;;;;2.80;99.90;;;;;;5073707;28;19943;-74
2023/03/03 02:14:47;;;;;;;;;;;2.70;99.90;;;;;;5010989;28;212900;-75
2023/03/03 02:17:13;;;;;;;;;;;2.70;99.90;;;;;;5054121;28;19985;-74
2023/03/03 02:19:41;;;;;;;;;;;2.80;99.90;;;;;;5011453;28;208706;-74
2023/03/03 02:22:07;;;;;;;;;;;2.80;99.90;;;;;;5076535;28;19928;-73
2023/03/03 02:24:43;;;;;;;;;;;2.80;99.90;;;;;;5007459;28;209810;-74
2023/03/03 02:27:09;;;;;;;;;;;2.70;99.90;;;;;;5054295;28;19920;-74
2023/03/03 02:29:35;;;;;;;;;;;2.80;99.90;;;;;;5020632;28;213968;-74
2023/03/03 02:32:01;;;;;;;;;;;2.80;99.90;;;;;;5067373;28;19926;-74
2023/03/03 02:34:27;;;;;;;;;;;2.80;99.90;;;;;;5009454;28;220038;-74
2023/03/03 02:36:53;;;;;;;;;;;2.70;99.90;;;;;;5068506;28;19931;-74
2023/03/03 02:39:23;;;;;;;;;;;2.70;99.90;;;;;;4995970;28;213029;-74
2023/03/03 02:42:01;;;;;;;;;;;2.70;99.90;;;;;;5051676;28;19928;-74
2023/03/03 02:44:29;;;;;;;;;;;2.70;99.90;;;;;;5015629;28;205325;-74
2023/03/03 02:46:55;;;;;;;;;;;2.60;99.90;;;;;;5070353;28;20388;-74
2023/03/03 02:49:23;;;;;;;;;;;2.60;99.90;;;;;;5001447;28;215332;-74
2023/03/03 02:51:49;;;;;;;;;;;2.60;99.90;;;;;;5053577;28;19940;-73
2023/03/03 02:54:16;;;;;;;;;;;2.50;99.90;;;;;;5002913;28;208661;-73
2023/03/03 02:56:42;;;;;;;;;;;2.50;99.90;;;;;;5060585;28;19931;-73
2023/03/03 02:59:08;;;;;;;;;;;2.50;99.90;;;;;;5011131;28;217525;-73
2023/03/03 03:01:37;;;;;;;;;;;2.50;99.90;;;;;;5067207;28;20322;-73
2023/03/03 03:04:07;;;;;;;;;;;2.50;99.90;;;;;;4986931;28;242474;-73
2023/03/03 03:06:33;;;;;;;;;;;2.50;99.90;;;;;;5057871;28;19995;-73
2023/03/03 03:08:59;;;;;;;;;;;2.40;99.90;;;;;;5009087;28;211095;-73
2023/03/03 03:11:25;;;;;;;;;;;2.40;99.90;;;;;;5046624;28;20389;-74
2023/03/03 03:13:51;;;;;;;;;;;2.40;99.90;;;;;;4996531;28;127198;-75
2023/03/03 03:16:18;;;;;;;;;;;2.40;99.90;;;;;;5057703;28;19939;-75
2023/03/03 03:18:44;;;;;;;;;;;2.40;99.90;;;;;;4990142;28;210765;-74
2023/03/03 03:21:11;;;;;;;;;;;2.40;99.90;;;;;;5081868;28;19923;-74
2023/03/03 03:23:37;;;;;;;;;;;2.40;99.90;;;;;;5022057;28;211205;-75
2023/03/03 03:26:04;;;;;;;;;;;2.40;99.90;;;;;;5077521;28;20440;-73
2023/03/03 03:28:30;;;;;;;;;;;2.40;99.90;;;;;;5044273;28;207216;-71
2023/03/03 03:30:56;;;;;;;;;;;2.40;99.90;;;;;;4998634;28;214866;-72
2023/03/03 03:33:22;;;;;;;;;;;2.40;99.90;;;;;;5064552;28;19932;-73
2023/03/03 03:35:49;;;;;;;;;;;2.30;99.90;;;;;;4992069;28;194510;-72
2023/03/03 03:38:15;;;;;;;;;;;2.30;99.90;;;;;;5090518;28;19928;-73
2023/03/03 03:40:41;;;;;;;;;;;2.30;99.90;;;;;;5018212;28;210814;-74
2023/03/03 03:43:07;;;;;;;;;;;2.30;99.90;;;;;;5061490;28;19924;-73
2023/03/03 03:45:33;;;;;;;;;;;2.30;99.90;;;;;;4978781;28;208072;-73
2023/03/03 03:47:59;;;;;;;;;;;2.30;99.90;;;;;;5064149;28;19931;-73
2023/03/03 03:50:26;;;;;;;;;;;2.30;99.90;;;;;;4986171;28;215858;-72
2023/03/03 03:52:51;;;;;;;;;;;2.30;99.90;;;;;;5061044;28;19924;-72
2023/03/03 03:55:17;;;;;;;;;;;2.30;99.90;;;;;;4991351;28;211171;-74
2023/03/03 03:57:43;;;;;;;;;;;2.30;99.90;;;;;;5060874;28;19924;-73
2023/03/03 04:00:10;;;;;;;;;;;2.30;99.90;;;;;;5016545;28;190789;-73
2023/03/03 04:02:36;;;;;;;;;;;2.20;99.90;;;;;;5059320;28;19924;-72
2023/03/03 04:05:03;;;;;;;;;;;2.20;99.90;;;;;;4979022;28;212962;-74
2023/03/03 04:07:29;;;;;;;;;;;2.20;99.90;;;;;;5056439;28;19928;-74
2023/03/03 04:09:55;;;;;;;;;;;2.10;99.90;;;;;;5002734;28;211848;-73
2023/03/03 04:12:21;;;;;;;;;;;2.10;99.90;;;;;;5064182;28;19920;-73
2023/03/03 04:14:47;;;;;;;;;;;2.00;99.90;;;;;;5007646;28;208729;-73
2023/03/03 04:17:20;;;;;;;;;;;2.00;99.90;;;;;;5068552;28;19921;-73
2023/03/03 04:19:46;;;;;;;;;;;1.90;99.90;;;;;;4992593;28;203564;-73
2023/03/03 04:22:13;;;;;;;;;;;1.90;99.90;;;;;;5062545;28;19932;-75
2023/03/03 04:24:39;;;;;;;;;;;1.90;99.90;;;;;;5021079;28;97989;-74
2023/03/03 04:27:06;;;;;;;;;;;1.80;99.90;;;;;;5074189;28;19924;-75
2023/03/03 04:29:31;;;;;;;;;;;1.80;99.90;;;;;;5021318;28;111310;-74
2023/03/03 04:31:57;;;;;;;;;;;1.70;99.90;;;;;;5075165;28;19929;-74
2023/03/03 04:34:23;;;;;;;;;;;1.60;99.90;;;;;;4991917;28;210151;-73
2023/03/03 04:36:49;;;;;;;;;;;1.60;99.90;;;;;;5054808;28;19931;-74
2023/03/03 04:39:15;;;;;;;;;;;1.70;99.90;;;;;;5001711;28;207126;-74
2023/03/03 04:41:41;;;;;;;;;;;1.60;99.90;;;;;;5054349;28;20320;-75
2023/03/03 04:44:07;;;;;;;;;;;1.60;99.90;;;;;;5001165;28;209532;-73
2023/03/03 04:46:33;;;;;;;;;;;1.60;99.90;;;;;;5048143;28;19943;-71
2023/03/03 04:48:59;;;;;;;;;;;1.60;99.90;;;;;;5011023;28;177624;-74
2023/03/03 04:51:25;;;;;;;;;;;1.60;99.90;;;;;;5044083;28;19926;-75
2023/03/03 04:53:50;;;;;;;;;;;1.60;99.90;;;;;;5008661;28;212373;-74
2023/03/03 04:56:16;;;;;;;;;;;1.50;99.90;;;;;;5072850;28;19955;-73
2023/03/03 04:58:42;;;;;;;;;;;1.40;99.90;;;;;;4999634;28;209840;-74
2023/03/03 05:01:11;;;;;;;;;;;1.40;99.90;;;;;;5030692;28;20312;-73
2023/03/03 05:03:37;;;;;;;;;;;1.40;99.90;;;;;;5001769;28;208791;-71
2023/03/03 05:06:03;;;;;;;;;;;1.30;99.90;;;;;;5078523;28;20327;-74
2023/03/03 05:08:29;;;;;;;;;;;1.20;99.90;;;;;;5050699;28;211000;-72
2023/03/03 05:10:55;;;;;;;;;;;1.20;99.90;;;;;;5012168;28;156456;-72
2023/03/03 05:13:20;;;;;;;;;;;1.20;99.90;;;;;;5061630;28;19928;-73
2023/03/03 05:15:50;;;;;;;;;;;1.20;99.90;;;;;;4984815;28;206796;-72
2023/03/03 05:18:19;;;;;;;;;;;1.20;99.90;;;;;;5057660;28;19924;-72
2023/03/03 05:20:45;;;;;;;;;;;1.20;99.90;;;;;;5016233;28;212052;-73
2023/03/03 05:23:11;;;;;;;;;;;1.10;99.90;;;;;;5057447;28;20385;-72
2023/03/03 05:25:38;;;;;;;;;;;1.10;99.90;;;;;;4997504;28;186571;-72
2023/03/03 05:28:04;;;;;;;;;;;1.10;99.90;;;;;;5063643;28;19921;-73
2023/03/03 05:30:30;;;;;;;;;;;1.00;99.90;;;;;;5012420;28;214667;-73
2023/03/03 05:32:58;;;;;;;;;;;1.00;99.90;;;;;;5059712;28;19959;-73
2023/03/03 05:35:24;;;;;;;;;;;1.00;99.90;;;;;;4989280;28;206926;-72
2023/03/03 05:37:51;;;;;;;;;;;0.90;99.90;;;;;;5050175;28;19928;-73
2023/03/03 05:40:17;;;;;;;;;;;0.80;99.90;;;;;;5013589;28;129421;-73
2023/03/03 05:42:44;;;;;;;;;;;0.70;99.90;;;;;;5036342;28;20490;-73
2023/03/03 05:45:10;;;;;;;;;;;0.60;99.90;;;;;;4992599;28;210637;-73
2023/03/03 05:47:35;;;;;;;;;;;0.50;99.90;;;;;;5055789;28;19920;-72
2023/03/03 05:50:02;;;;;;;;;;;0.40;99.90;;;;;;4989819;28;148610;-72
2023/03/03 05:52:28;;;;;;;;;;;0.40;99.90;;;;;;5054122;28;19924;-74
2023/03/03 05:54:54;;;;;;;;;;;0.30;99.90;;;;;;4997189;28;205231;-73
2023/03/03 05:57:20;;;;;;;;;;;0.30;99.90;;;;;;5067395;28;19924;-73
2023/03/03 05:59:46;;;;;;;;;;;0.30;99.90;;;;;;5004405;28;206221;-73
2023/03/03 06:02:12;;;;;;;;;;;0.20;99.90;;;;;;5065836;28;19935;-73
2023/03/03 06:04:38;;;;;;;;;;;0.20;99.90;;;;;;4984067;28;210902;-72
2023/03/03 06:07:04;;;;;;;;;;;0.20;99.90;;;;;;5042782;28;19936;-72
2023/03/03 06:09:31;;;;;;;;;;;0.20;99.90;;;;;;5003925;28;207144;-72
2023/03/03 06:11:57;;;;;;;;;;;0.20;99.90;;;;;;5052676;28;20293;-73
2023/03/03 06:14:23;;;;;;;;;;;0.20;99.90;;;;;;5015277;28;204984;-73
2023/03/03 06:16:49;;;;;;;;;;;0.20;99.90;;;;;;5063862;28;19935;-72
2023/03/03 06:19:15;;;;;;;;;;;0.10;99.90;;;;;;5001225;28;224192;-73
2023/03/03 06:21:41;;;;;;;;;;;0.10;99.90;;;;;;5045489;28;20420;-72
2023/03/03 06:24:07;;;;;;;;;;;0.00;99.90;;;;;;5000337;28;211358;-72
2023/03/03 06:26:33;;;;;;;;;;;0.00;99.90;;;;;;5062528;28;19928;-71
2023/03/03 06:28:59;;;;;;;;;;;0.00;99.90;;;;;;5017226;28;206895;-71
2023/03/03 06:31:26;;;;;;;;;;;0.00;99.90;;;;;;5036377;28;19924;-71
2023/03/03 06:33:52;;;;;;;;;;;-0.10;99.90;;;;;;4997305;28;210952;-72
2023/03/03 06:36:18;;;;;;;;;;;-0.10;99.90;;;;;;5031392;28;19924;-71
2023/03/03 06:38:44;;;;;;;;;;;-0.10;99.90;;;;;;5006639;28;208063;-71
2023/03/03 06:41:10;;;;;;;;;;;-0.10;99.90;;;;;;5058656;28;19932;-71
2023/03/03 06:43:36;;;;;;;;;;;-0.20;99.90;;;;;;4998215;28;214444;-70
2023/03/03 06:46:03;;;;;;;;;;;-0.20;99.90;;;;;;5058977;28;20389;-71
2023/03/03 06:48:29;;;;;;;;;;;-0.10;99.90;;;;;;5050319;28;206599;-71
2023/03/03 06:50:55;;;;;;;;;;;-0.10;99.90;;;;;;5014773;28;19936;-71
2023/03/03 06:53:21;;;;;;;;;;;-0.10;99.90;;;;;;5066656;28;19927;-71
2023/03/03 06:55:47;;;;;;;;;;;-0.10;99.90;;;;;;4980653;28;218728;-71
2023/03/03 06:58:15;;;;;;;;;;;0.00;99.90;;;;;;5085264;28;20442;-71
2023/03/03 07:00:45;;;;;;;;;;;0.00;99.90;;;;;;4990589;28;210332;-72
2023/03/03 07:03:15;;;;;;;;;;;0.00;99.90;;;;;;5065250;28;19927;-71
2023/03/03 07:05:41;;;;;;;;;;;0.10;99.90;;;;;;5001761;28;108650;-71
2023/03/03 07:08:15;;;;;;;;;;;0.20;99.90;;;;;;5067271;28;20232;-71
2023/03/03 07:10:41;;;;;;;;;;;0.20;99.90;;;;;;5004852;28;207966;-71
2023/03/03 07:13:15;;;;;;;;;;;0.20;99.90;;;;;;5061896;28;20313;-72
2023/03/03 07:15:41;;;;;;;;;;;0.20;99.90;;;;;;5015139;28;209930;-72
2023/03/03 07:18:20;;;;;;;;;;;0.10;99.90;;;;;;5075033;28;20121;-71
2023/03/03 07:20:46;;;;;;;;;;;0.20;99.90;;;;;;5016801;28;206491;-72
2023/03/03 07:23:24;;;;;;;;;;;0.30;99.90;;;;;;5067299;28;19935;-72
2023/03/03 07:25:50;;;;;;;;;;;0.30;99.90;;;;;;4997086;28;197732;-72
2023/03/03 07:28:19;;;;;;;;;;;0.40;99.90;;;;;;5050218;28;19924;-72
2023/03/03 07:30:45;;;;;;;;;;;0.40;99.90;;;;;;5000947;28;211500;-72
2023/03/03 07:33:18;;;;;;;;;;;0.40;99.90;;;;;;5066349;28;19974;-72
2023/03/03 07:35:46;;;;;;;;;;;0.40;99.90;;;;;;5008806;28;206518;-72
2023/03/03 07:38:23;;;;;;;;;;;0.40;99.90;;;;;;5047973;28;20333;-73
2023/03/03 07:40:50;;;;;;;;;;;0.40;99.90;;;;;;5023878;28;206646;-74
2023/03/03 07:43:35;;;;;;;;;;;0.50;99.90;;;;;;5083070;28;19978;-72
2023/03/03 07:46:02;;;;;;;;;;;0.60;99.90;;;;;;4984361;28;205292;-73
2023/03/03 07:48:31;;;;;;;;;;;0.70;99.90;;;;;;5054487;28;208367;-72
2023/03/03 07:51:00;;;;;;;;;;;0.80;99.90;;;;;;5016122;28;118475;-73
2023/03/03 07:53:28;;;;;;;;;;;0.70;99.90;;;;;;5069122;28;207526;-73
2023/03/03 07:55:54;;;;;;;;;;;0.80;99.90;;;;;;5045021;28;205923;-72
2023/03/03 07:58:22;;;;;;;;;;;0.90;99.90;;;;;;5084313;28;19931;-74
2023/03/03 08:01:06;;;;;;;;;;;1.00;99.90;;;;;;5019425;28;226223;-73
2023/03/03 08:03:34;;;;;;;;;;;1.10;99.90;;;;;;5026607;28;206601;-75
2023/03/03 08:06:07;;;;;;;;;;;1.30;99.90;;;;;;4995196;28;132979;-74
2023/03/03 08:08:35;;;;;;;;;;;1.40;99.90;;;;;;5028599;28;210076;-73
2023/03/03 08:11:03;;;;;;;;;;;1.40;99.90;;;;;;5039334;28;20369;-75
2023/03/03 08:13:32;;;;;;;;;;;1.40;99.90;;;;;;5068689;28;206806;-74
2023/03/03 08:16:03;;;;;;;;;;;1.60;99.90;;;;;;5015696;28;19975;-75
2023/03/03 08:18:29;;;;;;;;;;;1.80;99.90;;;;;;5065711;28;203178;-73
2023/03/03 08:20:56;;;;;;;;;;;1.90;99.90;;;;;;4976252;28;175598;-73
2023/03/03 08:23:22;;;;;;;;;;;1.90;99.90;;;;;;5078563;28;19928;-74
2023/03/03 08:25:49;;;;;;;;;;;1.80;99.90;;;;;;4985052;28;206647;-75
2023/03/03 08:28:15;;;;;;;;;;;1.80;99.90;;;;;;5067322;28;20325;-73
2023/03/03 08:30:41;;;;;;;;;;;1.80;99.90;;;;;;5030050;28;216337;-73
2023/03/03 08:33:07;;;;;;;;;;;1.80;99.90;;;;;;5086205;28;19920;-74
2023/03/03 08:35:33;;;;;;;;;;;1.80;99.90;;;;;;5016208;28;206001;-75
2023/03/03 08:37:59;;;;;;;;;;;1.80;99.90;;;;;;5077809;28;20390;-73
2023/03/03 08:40:25;;;;;;;;;;;1.80;99.90;;;;;;5011458;28;218754;-73
2023/03/03 08:42:51;;;;;;;;;;;1.80;99.90;;;;;;5082768;28;19934;-73
2023/03/03 08:45:17;;;;;;;;;;;1.80;99.90;;;;;;4996746;28;206727;-74
2023/03/03 08:47:43;;;;;;;;;;;1.90;99.90;;;;;;5084895;28;19940;-75
2023/03/03 08:50:10;;;;;;;;;;;1.90;99.90;;;;;;4995437;28;206553;-74
2023/03/03 08:52:36;;;;;;;;;;;2.00;99.90;;;;;;5082941;28;19931;-75
2023/03/03 08:55:02;;;;;;;;;;;2.00;99.90;;;;;;5015135;28;207049;-74
2023/03/03 08:57:29;;;;;;;;;;;2.10;99.90;;;;;;5071729;28;19941;-74
2023/03/03 08:59:55;;;;;;;;;;;2.10;99.90;;;;;;5029847;28;212887;-73
2023/03/03 09:02:20;;;;;;;;;;;2.10;99.90;;;;;;5077907;28;19928;-74
2023/03/03 09:04:46;;;;;;;;;;;2.20;99.90;;;;;;4982767;28;261712;-73
2023/03/03 09:07:12;;;;;;;;;;;2.20;99.90;;;;;;5061883;28;19931;-74
2023/03/03 09:09:38;;;;;;;;;;;2.20;99.90;;;;;;5002765;28;213869;-75
2023/03/03 09:12:16;;;;;;;;;;;2.30;99.90;;;;;;5046284;28;19924;-73
2023/03/03 09:14:42;;;;;;;;;;;2.40;99.90;;;;;;5008758;28;272936;-71
2023/03/03 09:17:26;;;;;;;;;;;2.40;99.90;;;;;;5067122;28;19925;-74
2023/03/03 09:19:54;;;;;;;;;;;2.50;99.90;;;;;;5004626;28;249870;-75
2023/03/03 09:22:22;;;;;;;;;;;2.50;99.90;;;;;;5061896;28;20288;-75
2023/03/03 09:24:49;;;;;;;;;;;2.60;99.90;;;;;;5004348;28;119903;-75
2023/03/03 09:27:25;;;;;;;;;;;2.60;99.90;;;;;;5070089;28;20308;-75
2023/03/03 09:29:51;;;;;;;;;;;2.70;99.90;;;;;;5019946;28;208885;-75
2023/03/03 09:32:30;;;;;;;;;;;2.80;99.90;;;;;;5075412;28;19927;-74
2023/03/03 09:34:56;;;;;;;;;;;2.80;99.90;;;;;;5029542;28;204619;-76
2023/03/03 09:37:22;;;;;;;;;;;2.80;99.90;;;;;;5060722;28;19943;-75
2023/03/03 09:39:57;;;;;;;;;;;2.90;99.90;;;;;;4999144;28;209398;-74
2023/03/03 09:42:41;;;;;;;;;;;2.90;99.90;;;;;;5037514;28;19931;-75
2023/03/03 09:45:26;;;;;;;;;;;3.00;99.90;;;;;;4990056;28;214773;-74
2023/03/03 09:47:52;;;;;;;;;;;3.10;99.90;;;;;;5040025;28;20303;-75
2023/03/03 09:50:39;;;;;;;;;;;3.20;99.90;;;;;;5022320;28;293840;-73
2023/03/03 09:53:41;;;;;;;;;;;3.30;99.90;;;;;;5064361;28;19927;-75
2023/03/03 09:56:07;;;;;;;;;;;3.40;99.90;;;;;;4965087;28;83282;-75
2023/03/03 09:58:51;;;;;;;;;;;3.50;99.90;;;;;;4987562;28;218171;-75
2023/03/03 10:01:17;;;;;;;;;;;3.60;99.90;;;;;;5011849;28;19926;-75
2023/03/03 10:04:04;;;;;;;;;;;3.70;99.90;;;;;;4959052;28;226056;-74
2023/03/03 10:06:37;;;;;;;;;;;3.80;99.90;;;;;;5012261;28;19921;-73
2023/03/03 10:09:09;;;;;;;;;;;3.90;99.90;;;;;;4956347;28;212577;-74
2023/03/03 10:11:35;;;;;;;;;;;4.00;99.90;;;;;;5016875;28;19932;-75
2023/03/03 10:14:04;;;;;;;;;;;4.00;99.90;;;;;;4964123;28;221052;-75
2023/03/03 10:16:33;;;;;;;;;;;4.10;99.90;;;;;;5015356;28;19933;-75
2023/03/03 10:19:08;;;;;;;;;;;4.20;99.90;;;;;;4975471;28;207672;-74
2023/03/03 10:21:48;;;;;;;;;;;4.30;99.90;;;;;;5029074;28;19958;-75
2023/03/03 10:24:28;;;;;;;;;;;4.40;99.90;;;;;;4976891;28;198616;-76
2023/03/03 10:26:55;;;;;;;;;;;4.60;99.90;;;;;;5030405;28;19940;-74
2023/03/03 10:29:26;;;;;;;;;;;4.70;99.90;;;;;;4962775;28;208450;-73
2023/03/03 10:31:52;;;;;;;;;;;4.90;99.90;;;;;;5078673;28;19924;-74
2023/03/03 10:34:21;;;;;;;;;;;5.00;99.90;;;;;;5014733;28;259493;-75
2023/03/03 10:36:46;;;;;;;;;;;5.10;99.90;;;;;;5086874;28;19924;-76
2023/03/03 10:39:12;;;;;;;;;;;5.30;99.90;;;;;;5021904;28;230775;-75
2023/03/03 10:41:54;;;;;;;;;;;5.50;99.90;;;;;;5074557;28;19924;-74
2023/03/03 10:44:30;;;;;;;;;;;5.60;99.90;;;;;;5018583;28;210174;-75
2023/03/03 10:47:08;;;;;;;;;;;5.70;99.90;;;;;;5094687;28;19924;-73
2023/03/03 10:49:40;;;;;;;;;;;5.90;99.90;;;;;;5024701;28;212988;-75
2023/03/03 10:52:12;;;;;;;;;;;6.10;99.90;;;;;;5071660;28;19927;-75
2023/03/03 10:54:44;;;;;;;;;;;6.30;99.90;;;;;;5026003;28;214815;-75
2023/03/03 10:57:16;;;;;;;;;;;6.50;99.90;;;;;;5086265;28;19932;-73
2023/03/03 10:59:42;;;;;;;;;;;6.70;99.90;;;;;;5011139;28;222306;-73
2023/03/03 11:02:21;;;;;;;;;;;6.90;99.90;;;;;;5081799;28;19955;-75
2023/03/03 11:05:05;;;;;;;;;;;7.00;99.90;;;;;;5014074;28;221769;-74
2023/03/03 11:07:34;;;;;;;;;;;7.00;99.90;;;;;;5066591;28;19924;-75
2023/03/03 11:10:01;;;;;;;;;;;7.10;99.90;;;;;;5030792;28;208912;-73
2023/03/03 11:12:27;;;;;;;;;;;7.20;99.90;;;;;;5076250;28;19920;-75
2023/03/03 11:15:06;;;;;;;;;;;7.30;99.90;;;;;;5030859;28;209047;-74
2023/03/03 11:17:48;;;;;;;;;;;7.40;99.90;;;;;;5081086;28;19943;-74
2023/03/03 11:20:30;;;;;;;;;;;7.50;99.90;;;;;;5032699;28;210501;-74
2023/03/03 11:23:02;;;;;;;;;;;7.70;99.90;;;;;;5069365;28;19931;-74
2023/03/03 11:25:37;;;;;;;;;;;9.10;99.90;;;;;;5012280;28;207330;-74
2023/03/03 11:28:09;;;;;;;;;;;10.80;99.90;;;;;;5061937;28;19935;-74
2023/03/03 11:30:53;;;;;;;;;;;11.60;99.90;;;;;;5025070;28;205278;-73
2023/03/03 11:33:23;;;;;;;;;;;11.70;99.90;;;;;;5091849;28;19924;-73
2023/03/03 11:35:58;;;;;;;;;;;11.60;99.90;;;;;;5031973;28;203948;-74
2023/03/03 11:38:34;;;;;;;;;;;11.00;99.90;;;;;;5098216;28;19931;-74
2023/03/03 11:41:07;;;;;;;;;;;10.60;99.90;;;;;;5004068;28;65104;-74
2023/03/03 11:43:37;;;;;;;;;;;10.30;99.90;;;;;;5048036;28;208810;-74
2023/03/03 11:46:11;;;;;;;;;;;10.00;99.90;;;;;;5041083;28;20312;-74
2023/03/03 11:48:44;;;;;;;;;;;9.70;99.90;;;;;;5031714;28;213049;-73
2023/03/03 11:51:22;;;;;;;;;;;9.40;99.90;;;;;;5095029;28;20438;-74
2023/03/03 11:54:04;;;;;;;;;;;9.00;99.90;;;;;;5048953;28;207650;-73
2023/03/03 11:56:38;;;;;;;;;;;8.90;99.90;;;;;;5076710;28;19928;-75
2023/03/03 11:59:26;;;;;;;;;;;8.50;99.90;;;;;;5020306;28;207859;-73
2023/03/03 12:01:53;;;;;;;;;;;8.50;99.90;;;;;;5079241;28;19924;-73
2023/03/03 12:04:21;;;;;;;;;;;8.40;99.90;;;;;;5008822;28;214051;-73
2023/03/03 12:07:06;;;;;;;;;;;8.50;99.90;;;;;;5086231;28;20389;-73
2023/03/03 12:09:39;;;;;;;;;;;8.60;99.90;;;;;;5013363;28;217097;-73
2023/03/03 12:12:13;;;;;;;;;;;8.90;99.90;;;;;;5086747;28;19920;-76
2023/03/03 12:14:58;;;;;;;;;;;9.10;99.90;;;;;;5014522;28;207447;-73
2023/03/03 12:17:30;;;;;;;;;;;9.10;99.90;;;;;;5056903;28;20348;-73
2023/03/03 12:20:08;;;;;;;;;;;8.90;99.90;;;;;;5022565;28;289474;-74
2023/03/03 12:22:40;;;;;;;;;;;8.80;99.90;;;;;;5068496;28;19924;-73
2023/03/03 12:25:25;;;;;;;;;;;8.70;99.90;;;;;;4996725;28;164177;-74
2023/03/03 12:27:59;;;;;;;;;;;8.60;99.90;;;;;;5084149;28;19920;-74
2023/03/03 12:30:36;;;;;;;;;;;8.70;99.90;;;;;;5027567;28;211709;-74
2023/03/03 12:33:09;;;;;;;;;;;8.80;99.90;;;;;;5086116;28;19928;-74
2023/03/03 12:35:35;;;;;;;;;;;8.80;99.90;;;;;;5007214;28;211410;-74
2023/03/03 12:38:09;;;;;;;;;;;8.50;99.90;;;;;;5086080;28;20565;-74
2023/03/03 12:40:50;;;;;;;;;;;8.20;99.90;;;;;;4978080;28;163087;-73
2023/03/03 12:43:36;;;;;;;;;;;8.10;99.90;;;;;;5084620;28;19924;-74
2023/03/03 12:46:22;;;;;;;;;;;8.10;99.90;;;;;;4976252;28;202714;-72
2023/03/03 12:48:48;;;;;;;;;;;8.70;99.90;;;;;;5013027;28;211955;-74
2023/03/03 12:51:33;;;;;;;;;;;8.80;99.90;;;;;;5062273;28;20312;-74
2023/03/03 12:54:18;;;;;;;;;;;8.90;99.90;;;;;;5009497;28;215241;-73
2023/03/03 12:56:47;;;;;;;;;;;8.80;99.90;;;;;;5067081;28;19928;-73
2023/03/03 12:59:23;;;;;;;;;;;8.60;99.90;;;;;;5002756;28;206619;-73
2023/03/03 13:02:01;;;;;;;;;;;8.60;99.90;;;;;;5076008;28;19935;-73
2023/03/03 13:04:43;;;;;;;;;;;8.60;99.90;;;;;;4983502;28;251474;-73
2023/03/03 13:07:08;;;;;;;;;;;8.70;99.90;;;;;;5050517;28;19924;-74
2023/03/03 13:09:37;;;;;;;;;;;9.50;99.90;;;;;;5021973;28;213881;-73
2023/03/03 13:12:06;;;;;;;;;;;8.90;99.90;;;;;;5066074;28;19920;-74
2023/03/03 13:14:41;;;;;;;;;;;8.80;99.90;;;;;;5015198;28;204364;-72
2023/03/03 13:17:20;;;;;;;;;;;9.50;99.90;;;;;;5071509;28;19924;-74
2023/03/03 13:19:50;;;;;;;;;;;9.40;99.70;;;;;;5023927;28;221475;-73
2023/03/03 13:22:36;;;;;;;;;;;9.50;99.60;;;;;;5085957;28;19924;-74
2023/03/03 13:25:06;;;;;;;;;;;9.40;99.90;;;;;;5020587;28;246114;-74
2023/03/03 13:27:42;;;;;;;;;;;9.50;99.50;;;;;;5058492;28;19924;-73
2023/03/03 13:30:14;;;;;;;;;;;9.30;99.70;;;;;;5015468;28;209137;-74
2023/03/03 13:32:43;;;;;;;;;;;9.00;99.90;;;;;;5042027;28;19924;-74
2023/03/03 13:35:22;;;;;;;;;;;8.90;99.90;;;;;;5032119;28;254234;-73
2023/03/03 13:37:51;;;;;;;;;;;9.00;99.90;;;;;;5081162;28;19932;-74
2023/03/03 13:40:22;;;;;;;;;;;8.70;99.90;;;;;;5008204;28;248845;-73
2023/03/03 13:42:56;;;;;;;;;;;8.60;99.90;;;;;;5065964;28;19931;-74
2023/03/03 13:45:22;;;;;;;;;;;8.70;99.90;;;;;;5006438;28;225686;-73
2023/03/03 13:47:51;;;;;;;;;;;8.80;99.90;;;;;;5065337;28;19950;-73
2023/03/03 13:50:23;;;;;;;;;;;8.90;99.90;;;;;;5027355;28;208390;-73
2023/03/03 13:52:49;;;;;;;;;;;8.90;99.90;;;;;;5083794;28;19928;-74
2023/03/03 13:55:15;;;;;;;;;;;9.00;99.90;;;;;;5011693;28;138002;-74
2023/03/03 13:57:44;;;;;;;;;;;8.80;99.90;;;;;;5057993;28;19929;-74
2023/03/03 14:00:29;;;;;;;;;;;8.90;99.90;;;;;;4993409;28;211011;-73
2023/03/03 14:02:58;;;;;;;;;;;9.00;99.90;;;;;;5058985;28;19943;-74
2023/03/03 14:05:27;;;;;;;;;;;8.80;99.90;;;;;;4988513;28;222901;-73
2023/03/03 14:07:58;;;;;;;;;;;8.70;99.90;;;;;;5063895;28;19931;-74
2023/03/03 14:10:31;;;;;;;;;;;8.60;99.90;;;;;;5020367;28;199777;-73
2023/03/03 14:13:03;;;;;;;;;;;8.60;99.90;;;;;;5081806;28;19920;-73
2023/03/03 14:15:32;;;;;;;;;;;8.70;99.90;;;;;;5026693;28;221886;-73
2023/03/03 14:18:01;;;;;;;;;;;8.50;99.90;;;;;;5045615;28;19933;-74
2023/03/03 14:20:29;;;;;;;;;;;8.30;99.90;;;;;;4984219;28;215978;-73
2023/03/03 14:23:02;;;;;;;;;;;8.40;99.90;;;;;;5057119;28;19924;-73
2023/03/03 14:25:51;;;;;;;;;;;8.60;99.90;;;;;;5014582;28;154640;-74
2023/03/03 14:28:19;;;;;;;;;;;10.40;99.90;;;;;;5055426;28;20368;-76
2023/03/03 14:30:45;;;;;;;;;;;12.20;99.00;;;;;;5022178;28;205114;-75
2023/03/03 14:33:11;;;;;;;;;;;13.30;97.90;;;;;;5062915;28;19956;-74
2023/03/03 14:35:38;;;;;;;;;;;12.30;96.70;;;;;;5016462;28;207630;-73
2023/03/03 14:38:07;;;;;;;;;;;10.90;97.60;;;;;;5053902;28;19925;-74